Impacts TAF Board
For situational awareness. Not to be used for flight planning purposes.
IDs:

KTLH - Tallahassee Intl, FL, US

Issued at 1724 UTC 23 Jan 2019
Updated at 1809 UTC 23 Jan 2019
Potential Impact None Slight Moderate High
Time1753Z 23/19Z 23/20Z 23/21Z 23/22Z 23/23Z 24/00Z 24/01Z 24/02Z 24/03Z 24/04Z 24/05Z 24/06Z 24/07Z>>
Type OBS PRVL PRVL PRVL PRVL PRVL PRVL PRVL PRVL PRVL PRVL PRVL PRVL PRVL
VIS 10 >6 >6 >6 >6 >6 4 4 4 4 4 4 4 4
CIG 60 50 50 50 50 50 15 15 15 15 15 15 15 15
Cover BKN BKN BKN BKN BKN BKN BKN BKN BKN BKN BKN BKN BKN BKN
FltCat VFR VFR VFR VFR VFR VFR MVFR MVFR MVFR MVFR MVFR MVFR MVFR MVFR
WX -- -- -- -- -- -- SHRA SHRA SHRA SHRA SHRA SHRA SHRA SHRA
WDir 160 170 170 170 170 170 170 170 170 170 170 170 170 170
WSpd 18 18 18 18 18 18 20 20 20 20 20 20 20 20
WGst 30 30 30 30 30 30 35 35 35 35 35 35 35 35
Raw TAF
KTLH 231724Z 2318/2418 17018G30KT P6SM SCT025 BKN050
  FM240000 17020G35KT 4SM SHRA BKN015
  FM241000 27014KT P6SM BKN007
  FM241400 30010KT P6SM BKN020


Raw METAR
KTLH 231753Z 16018G30KT 10SM BKN060 22/14 A3009 RMK AO2 PK WND 14030/1725 PRESFR SLP187 T02220139 10222 20144 58037
KTLH 231653Z 17020G27KT 10SM FEW050 BKN085 22/14 A3014 RMK AO2 PK WND 15032/1639 SLP204 T02170139
KTLH 231553Z 16015G21KT 10SM SCT050 BKN085 21/14 A3017 RMK AO2 SLP214 T02060139

METAR Board
Radar Display
Forecast Discussion
For situational awareness. Not to be used for flight planning purposes.